Main page
METAR-TAF:

METAR-TAF

Airports :

General Ulpiano Paez Airport

Salinas, Ecuador

latitude: 02-12-18S, longitude: 080-59-20W, elevation: 5 m

Current weather observation

The report was made 11 minutes ago, at 12:00 UTC
Wind 13 kt from the South/Southwest
Temperature 21°C
Humidity 88%
Pressure 1012 hPa
Visibility 10 km or more
Overcast at a height of 2000 ft

METAR: SESA 121200Z 20013KT 9999 OVC020 21/19 Q1012 Q1012 RMK A2986

Time: 07:11 (12:11 UTC)


TAF: missing

Weather observations and forecasts of more than 4000 airports (METAR and TAF reports).

The available stations are represented by yellow and red dots on the map.

Hover mouse over dot to see the name of the station.

Then click to see weather observations and forecasts.

To change the map : click on the green buttons with a black cross to zoom in, on the green button with a dash to zoom out, or on the green arrows for adjacent maps.


METAR-TAF: